Wetterdaten: aktuell Montag, 14.06.2021 21:15
Datum Zeit Temp. A. Feuchte A. Luftdruck Regen Wind Richtung Richtung Windben
14.06.2021 21:15 14,1 C 72 % 1020,4 hPa 0,0 l/m 0,8 km/h N-NW 342 8,0 km/h
14.06.2021 21:10 14,2 C 72 % 1020,4 hPa 0,0 l/m 0,2 km/h N-NW 346 8,0 km/h
14.06.2021 21:04 14,3 C 71 % 1020,3 hPa 0,0 l/m 0,0 km/h N-NO 21 0,0 km/h
14.06.2021 21:00 14,6 C 70 % 1020,1 hPa 0,0 l/m 0,0 km/h N-NO 17 3,2 km/h
14.06.2021 20:55 14,8 C 70 % 1020,1 hPa 0,0 l/m 0,1 km/h N-NO 12 3,2 km/h
14.06.2021 20:49 14,9 C 69 % 1020,0 hPa 0,0 l/m 0,0 km/h N-NW 344 0,0 km/h
14.06.2021 20:45 15,0 C 69 % 1020,0 hPa 0,0 l/m 0,1 km/h N-NW 337 3,2 km/h
14.06.2021 20:39 15,2 C 68 % 1020,0 hPa 0,0 l/m 0,0 km/h N-NW 348 0,0 km/h
14.06.2021 20:35 15,4 C 67 % 1020,0 hPa 0,0 l/m 0,0 km/h N-NW 347 0,0 km/h
14.06.2021 20:34 15,4 C 67 % 1020,0 hPa 0,0 l/m 0,0 km/h N-NW 345 0,0 km/h
14.06.2021 20:30 15,6 C 67 % 1019,9 hPa 0,0 l/m 0,1 km/h N 353 6,4 km/h
14.06.2021 20:25 15,7 C 65 % 1019,9 hPa 0,0 l/m 0,0 km/h N-NW 345 0,0 km/h
14.06.2021 20:19 15,8 C 66 % 1019,9 hPa 0,0 l/m 0,2 km/h N-NO 12 4,8 km/h
14.06.2021 20:15 16,2 C 65 % 1019,8 hPa 0,0 l/m 0,0 km/h N 353 0,0 km/h
14.06.2021 20:14 16,2 C 65 % 1019,8 hPa 0,0 l/m 0,0 km/h N-NW 345 0,0 km/h
14.06.2021 20:10 16,2 C 63 % 1019,8 hPa 0,0 l/m 0,0 km/h N-NW 348 0,0 km/h
14.06.2021 20:05 16,4 C 63 % 1019,7 hPa 0,0 l/m 0,0 km/h N-NW 347 0,0 km/h
14.06.2021 20:04 16,4 C 63 % 1019,7 hPa 0,0 l/m 0,0 km/h N 355 0,0 km/h
14.06.2021 20:00 16,7 C 63 % 1019,6 hPa 0,0 l/m 0,0 km/h N-NW 344 0,0 km/h
14.06.2021 19:55 17,1 C 61 % 1019,7 hPa 0,0 l/m 0,0 km/h N 352 0,0 km/h
14.06.2021 19:50 17,5 C 59 % 1019,6 hPa 0,0 l/m 0,0 km/h N-NW 345 0,0 km/h
14.06.2021 19:44 18,2 C 57 % 1019,6 hPa 0,0 l/m 0,0 km/h N-NW 345 0,0 km/h
14.06.2021 19:40 18,7 C 56 % 1019,5 hPa 0,0 l/m 0,0 km/h SO 129 0,0 km/h
14.06.2021 19:39 18,7 C 56 % 1019,5 hPa 0,0 l/m 0,0 km/h S-SW 200 0,0 km/h
14.06.2021 19:35 19,1 C 55 % 1019,4 hPa 0,0 l/m 0,0 km/h S-SW 198 0,0 km/h
14.06.2021 19:30 19,4 C 54 % 1019,4 hPa 0,0 l/m 0,0 km/h S-SO 152 0,0 km/h
14.06.2021 19:25 19,7 C 50 % 1019,4 hPa 0,0 l/m 0,0 km/h S-SO 152 0,0 km/h
14.06.2021 19:20 20,1 C 48 % 1019,4 hPa 0,0 l/m 0,0 km/h S-SW 212 0,0 km/h
14.06.2021 19:19 20,1 C 48 % 1019,4 hPa 0,0 l/m 0,0 km/h S-SW 212 0,0 km/h
14.06.2021 19:15 20,7 C 49 % 1019,3 hPa 0,0 l/m 0,0 km/h S-SO 167 0,0 km/h
14.06.2021 19:10 20,8 C 47 % 1019,3 hPa 0,0 l/m 0,0 km/h S-SW 200 0,0 km/h
14.06.2021 19:04 21,2 C 49 % 1019,3 hPa 0,0 l/m 0,0 km/h S 171 0,0 km/h
14.06.2021 19:00 21,3 C 47 % 1019,3 hPa 0,0 l/m 0,0 km/h SW 223 0,0 km/h
14.06.2021 18:59 21,3 C 47 % 1019,3 hPa 0,0 l/m 0,0 km/h SW 223 0,0 km/h
14.06.2021 18:55 21,3 C 47 % 1019,3 hPa 0,0 l/m 0,0 km/h W-SW 250 0,0 km/h
14.06.2021 18:50 21,3 C 46 % 1019,3 hPa 0,0 l/m 0,0 km/h NW 318 0,0 km/h
14.06.2021 18:45 21,4 C 46 % 1019,3 hPa 0,0 l/m 0,0 km/h SW 221 0,0 km/h
14.06.2021 18:40 21,4 C 47 % 1019,3 hPa 0,0 l/m 0,0 km/h SW 233 0,0 km/h
14.06.2021 18:35 21,6 C 46 % 1019,3 hPa 0,0 l/m 0,1 km/h O-SO 104 1,6 km/h
14.06.2021 18:34 21,6 C 46 % 1019,3 hPa 0,0 l/m 0,0 km/h S-SO 147 0,0 km/h
14.06.2021 18:30 21,6 C 47 % 1019,2 hPa 0,0 l/m 0,0 km/h S-SW 196 0,0 km/h
14.06.2021 18:25 21,7 C 46 % 1019,3 hPa 0,0 l/m 0,1 km/h S-SO 165 4,8 km/h
14.06.2021 18:20 21,8 C 44 % 1019,3 hPa 0,0 l/m 0,0 km/h O-NO 61 1,6 km/h
14.06.2021 18:15 21,8 C 47 % 1019,4 hPa 0,0 l/m 0,0 km/h SW 230 0,0 km/h
14.06.2021 18:14 21,7 C 47 % 1019,3 hPa 0,0 l/m 0,0 km/h SW 230 0,0 km/h
14.06.2021 18:10 21,6 C 45 % 1019,3 hPa 0,0 l/m 0,0 km/h SW 222 0,0 km/h
14.06.2021 18:09 21,6 C 45 % 1019,3 hPa 0,0 l/m 0,0 km/h S-SO 164 0,0 km/h
14.06.2021 18:05 21,6 C 47 % 1019,3 hPa 0,0 l/m 0,0 km/h S-SO 168 0,0 km/h
14.06.2021 18:00 21,6 C 44 % 1019,3 hPa 0,0 l/m 0,0 km/h S-SO 158 0,0 km/h
14.06.2021 17:55 21,7 C 43 % 1019,4 hPa 0,0 l/m 0,0 km/h N-NO 29 0,0 km/h
14.06.2021 17:54 21,7 C 43 % 1019,4 hPa 0,0 l/m 0,1 km/h N-NO 29 3,2 km/h
14.06.2021 17:50 21,9 C 48 % 1019,3 hPa 0,0 l/m 0,0 km/h W-SW 250 0,0 km/h
14.06.2021 17:49 21,9 C 48 % 1019,3 hPa 0,0 l/m 0,0 km/h W-SW 250 0,0 km/h
14.06.2021 17:44 21,8 C 48 % 1019,3 hPa 0,0 l/m 0,0 km/h W-SW 250 0,0 km/h
14.06.2021 17:40 21,7 C 44 % 1019,4 hPa 0,0 l/m 0,0 km/h S-SO 156 3,2 km/h
14.06.2021 17:35 21,6 C 48 % 1019,4 hPa 0,0 l/m 0,1 km/h SW 214 4,8 km/h
14.06.2021 17:30 21,5 C 45 % 1019,5 hPa 0,0 l/m 0,0 km/h O-NO 67 1,6 km/h
14.06.2021 17:25 21,7 C 45 % 1019,5 hPa 0,0 l/m 0,0 km/h O-SO 105 1,6 km/h
14.06.2021 17:20 21,8 C 47 % 1019,5 hPa 0,0 l/m 0,0 km/h S 177 0,0 km/h
14.06.2021 17:19 21,8 C 47 % 1019,5 hPa 0,0 l/m 0,3 km/h S 177 6,4 km/h
14.06.2021 17:15 22,1 C 44 % 1019,5 hPa 0,0 l/m 0,0 km/h S 185 0,0 km/h
14.06.2021 17:14 22,1 C 44 % 1019,5 hPa 0,0 l/m 0,0 km/h W-SW 252 0,0 km/h
14.06.2021 17:10 22,2 C 45 % 1019,5 hPa 0,0 l/m 0,0 km/h S 181 0,0 km/h
14.06.2021 17:05 22,2 C 45 % 1019,5 hPa 0,0 l/m 0,2 km/h S-SW 198 6,4 km/h
14.06.2021 16:59 22,4 C 45 % 1019,5 hPa 0,0 l/m 0,0 km/h S 186 0,0 km/h
14.06.2021 16:55 22,4 C 46 % 1019,6 hPa 0,0 l/m 0,0 km/h S-SW 200 0,0 km/h
14.06.2021 16:50 22,3 C 45 % 1019,5 hPa 0,0 l/m 0,0 km/h S 180 0,0 km/h
14.06.2021 16:49 22,3 C 45 % 1019,5 hPa 0,0 l/m 0,0 km/h S 180 0,0 km/h
14.06.2021 16:45 22,2 C 47 % 1019,6 hPa 0,0 l/m 0,0 km/h S 190 0,0 km/h
14.06.2021 16:44 22,2 C 47 % 1019,6 hPa 0,0 l/m 0,0 km/h S-SW 200 0,0 km/h
14.06.2021 16:40 22,2 C 48 % 1019,6 hPa 0,0 l/m 0,0 km/h SW 225 0,0 km/h
14.06.2021 16:35 22,4 C 45 % 1019,7 hPa 0,0 l/m 0,0 km/h W 270 0,0 km/h
14.06.2021 16:30 22,2 C 47 % 1019,7 hPa 0,0 l/m 0,0 km/h SW 221 0,0 km/h
14.06.2021 16:25 22,1 C 47 % 1019,7 hPa 0,0 l/m 0,0 km/h S-SW 199 0,0 km/h
14.06.2021 16:24 22,1 C 47 % 1019,7 hPa 0,0 l/m 0,0 km/h S-SW 199 0,0 km/h
14.06.2021 16:20 21,9 C 46 % 1019,8 hPa 0,0 l/m 0,0 km/h W 261 0,0 km/h
14.06.2021 16:19 21,9 C 46 % 1019,8 hPa 0,0 l/m 0,0 km/h S 186 0,0 km/h
14.06.2021 16:15 22,1 C 46 % 1019,7 hPa 0,0 l/m 0,0 km/h S-SO 153 0,0 km/h
14.06.2021 16:10 22,2 C 47 % 1019,7 hPa 0,0 l/m 0,0 km/h S 177 0,0 km/h
14.06.2021 16:05 22,2 C 50 % 1019,7 hPa 0,0 l/m 0,0 km/h W-SW 252 0,0 km/h
14.06.2021 16:00 21,7 C 48 % 1019,8 hPa 0,0 l/m 0,0 km/h S 169 0,0 km/h
14.06.2021 15:55 21,8 C 47 % 1019,9 hPa 0,0 l/m 0,0 km/h N 354 0,0 km/h
14.06.2021 15:54 21,8 C 47 % 1019,9 hPa 0,0 l/m 0,1 km/h N 356 4,8 km/h
14.06.2021 15:50 21,9 C 49 % 1019,8 hPa 0,0 l/m 0,4 km/h S-SO 158 11,3 km/h
14.06.2021 15:45 21,9 C 49 % 1019,9 hPa 0,0 l/m 0,1 km/h S-SW 206 3,2 km/h
14.06.2021 15:39 21,9 C 48 % 1019,8 hPa 0,0 l/m 0,4 km/h SW 229 12,9 km/h
14.06.2021 15:35 22,2 C 48 % 1019,7 hPa 0,0 l/m 0,5 km/h S 177 1,6 km/h
14.06.2021 15:34 22,1 C 48 % 1019,7 hPa 0,0 l/m 0,3 km/h S 170 9,7 km/h
14.06.2021 15:30 22,1 C 46 % 1019,9 hPa 0,0 l/m 0,0 km/h S 169 0,0 km/h
14.06.2021 15:29 22,1 C 46 % 1019,9 hPa 0,0 l/m 0,2 km/h SO 146 8,0 km/h
14.06.2021 15:25 22,5 C 48 % 1019,9 hPa 0,0 l/m 0,0 km/h S-SW 194 0,0 km/h
14.06.2021 15:20 22,5 C 50 % 1019,8 hPa 0,0 l/m 0,0 km/h SW 214 0,0 km/h
14.06.2021 15:15 22,3 C 48 % 1019,8 hPa 0,0 l/m 0,0 km/h W-SW 241 0,0 km/h
14.06.2021 15:10 22,1 C 49 % 1019,9 hPa 0,0 l/m 0,0 km/h S-SW 210 0,0 km/h
14.06.2021 15:09 22,1 C 49 % 1019,9 hPa 0,0 l/m 0,0 km/h S-SW 210 0,0 km/h
14.06.2021 15:05 22,4 C 48 % 1019,8 hPa 0,0 l/m 0,0 km/h S-SO 155 1,6 km/h
14.06.2021 15:00 22,8 C 53 % 1019,9 hPa 0,0 l/m 0,0 km/h S-SW 202 0,0 km/h
_ Min-Zeit 05:00 17:54 18:30 - 22:00 - - 22:00
Minimum _ 8,4 C 43 % 1019,2 hPa - 0,0 km/h - - 0,0 km/h
_ Max-Zeit 15:00 03:10 01:25 22:00 21:15 - - 15:39
Maximum _ 22,8 C 81 % 1024,1 hPa 0,0 l/m 0,8 km/h
N-NW
- - 12,9 km/h
S-SO
Durchschnitt _ 15,6 C 64 % 1021,9 hPa #0,0 l/m 0,0 km/h N - 0,7 km/h